This is the latest recevied weather packets stored in our database for station/object F4LPU-13. If no packets are shown the sender has not sent any weather packets the latest 10 day(s).
| Time | Temp. | Humidity | Pressure | Rain* | Wind** | Luminosity | Snow |
|---|---|---|---|---|---|---|---|
| 1777924862 | 14.44° C | 8% | - | 0 mm | - | - | - |
| 1777924503 | 16.67° C | 6% | - | 0 mm | - | - | - |
| 1777921503 | 16.67° C | 6% | - | 0 mm | - | - | - |
| 1777918502 | 16.67° C | 6% | - | 0 mm | - | - | - |
| 1777915502 | 15.56° C | 8% | - | 0.25 mm | - | - | - |
| 1777912502 | 15.56° C | 8% | - | 0.25 mm | - | - | - |
| 1777909502 | 18.89° C | 5% | - | 0 mm | - | - | - |
| 1777906502 | 18.89° C | 5% | - | 0 mm | - | - | - |
| 1777903502 | 18.89° C | 5% | - | 0 mm | - | - | - |
| 1777900502 | 18.89° C | 5% | - | 0 mm | - | - | - |
| 1777897502 | 18.89° C | 5% | - | 0 mm | - | - | - |
| 1777894502 | 16.67° C | 7% | - | 0 mm | - | - | - |
| 1777891502 | 16.67° C | 7% | - | 0 mm | - | - | - |
| 1777888502 | 14.44° C | 8% | - | 0 mm | - | - | - |
| 1777885502 | 14.44° C | 8% | - | 0 mm | - | - | - |
| 1777882502 | 14.44° C | 8% | - | 0 mm | - | - | - |
| 1777879502 | 11.67° C | 8% | - | 0 mm | - | - | - |
| 1777876502 | 11.67° C | 8% | - | 0 mm | - | - | - |
| 1777873503 | 11.67° C | 9% | - | 0 mm | - | - | - |
| 1777870503 | 17.22° C | 4% | - | 0 mm | - | - | - |
| 1777838463 | 17.22° C | 4% | - | 0 mm | - | - | - |
| 1777838103 | 18.33° C | 4% | - | 0 mm | - | - | - |
| 1777835103 | 18.33° C | 4% | - | 0 mm | - | - | - |
| 1777832103 | 18.33° C | 4% | - | 0 mm | - | - | - |
| 1777829103 | 19.44° C | 4% | - | 0 mm | - | - | - |
* Rain latest hour (hover to see other rain measurements)
** Current wind speed in m/s (hover to see current wind gust speed)